createdAt,value
2022-09-02T00:02:55.351Z,52421.91
2022-09-02T00:07:59.033Z,52421.91
2022-09-02T00:13:04.874Z,52397.28
2022-09-02T00:18:15.443Z,52419.88
2022-09-02T00:23:19.792Z,52409.59
2022-09-02T00:28:24.921Z,52384.94
2022-09-02T00:33:28.804Z,52421.91
2022-09-02T00:38:33.820Z,52387.00
2022-09-02T00:43:46.265Z,52389.06
2022-09-02T00:48:57.077Z,52393.16
2022-09-02T00:54:01.337Z,52389.06
2022-09-02T00:59:07.299Z,52432.19
2022-09-02T01:04:11.220Z,52401.38
2022-09-02T01:09:17.513Z,52391.09
2022-09-02T01:14:24.150Z,52405.50
2022-09-02T01:19:35.039Z,52380.84
2022-09-02T01:24:39.861Z,52401.38
2022-09-02T01:29:43.929Z,52401.38
2022-09-02T01:34:47.955Z,52405.50
2022-09-02T01:39:53.779Z,52343.88
2022-09-02T01:44:57.859Z,52387.00
2022-09-02T01:50:01.413Z,52395.22
2022-09-02T01:55:09.071Z,52401.38
2022-09-02T02:00:15.243Z,52387.00
2022-09-02T02:05:19.181Z,52421.91
2022-09-02T02:10:26.965Z,52391.09
2022-09-02T02:20:35.254Z,52399.31
2022-09-02T02:25:41.658Z,52372.63
2022-09-02T02:30:45.190Z,52356.19
2022-09-02T02:35:49.113Z,52350.03
2022-09-02T02:40:58.221Z,52366.47
2022-09-02T02:46:02.731Z,52401.38
2022-09-02T02:51:07.543Z,52374.69
2022-09-02T02:56:12.709Z,52366.47
2022-09-02T03:01:16.398Z,52352.09
2022-09-02T03:06:23.942Z,52395.22
2022-09-02T03:11:32.195Z,52362.34
2022-09-02T03:16:36.245Z,52356.19
2022-09-02T03:21:40.007Z,52364.41
2022-09-02T03:26:46.881Z,52341.81
2022-09-02T03:31:50.751Z,52354.13
2022-09-02T03:36:58.289Z,52323.31
2022-09-02T03:42:03.445Z,52345.91
2022-09-02T03:47:09.889Z,52372.63
2022-09-02T03:52:13.549Z,52366.47
2022-09-02T03:57:20.599Z,52360.31
2022-09-02T04:02:25.510Z,52362.34
2022-09-02T04:07:29.580Z,52354.13
2022-09-02T04:12:34.591Z,52356.19
2022-09-02T04:17:38.989Z,52356.19
2022-09-02T04:22:45.031Z,52384.94
2022-09-02T04:27:50.767Z,52366.47
2022-09-02T04:32:54.750Z,52360.31
2022-09-02T04:37:59.594Z,52358.25
2022-09-02T04:43:04.923Z,52350.03
2022-09-02T04:48:10.244Z,52372.63
2022-09-02T04:53:14.603Z,52331.53
2022-09-02T04:58:20.569Z,52343.88
2022-09-02T05:03:26.428Z,52347.97
2022-09-02T05:08:29.995Z,52339.75
2022-09-02T05:13:35.267Z,52329.50
2022-09-02T05:18:39.113Z,52325.38
2022-09-02T05:23:44.529Z,52327.44
2022-09-02T05:28:49.900Z,52327.44
2022-09-02T05:33:54.413Z,52331.53
2022-09-02T05:38:59.330Z,52327.44
2022-09-02T05:44:06.619Z,52302.78
2022-09-02T05:49:17.240Z,52315.13
2022-09-02T05:54:28.680Z,52315.13
2022-09-02T05:59:36.855Z,52311.00
2022-09-02T06:04:41.473Z,52327.44
2022-09-02T06:09:47.003Z,52313.06
2022-09-02T06:14:52.070Z,52313.06
2022-09-02T06:19:58.311Z,52306.91
2022-09-02T06:25:04.424Z,52333.59
2022-09-02T06:30:11.268Z,52304.84
2022-09-02T06:35:15.297Z,52278.13
2022-09-02T06:40:19.819Z,52311.00
2022-09-02T06:45:26.801Z,52313.06
2022-09-02T06:50:33.490Z,52304.84
2022-09-02T06:55:37.612Z,52311.00
2022-09-02T07:00:45.444Z,52290.47
2022-09-02T07:05:59.509Z,52304.84
2022-09-02T07:11:06.025Z,52259.66
2022-09-02T07:16:11.170Z,52282.25
2022-09-02T07:21:21.874Z,52286.34
2022-09-02T07:26:25.894Z,52276.09
2022-09-02T07:31:31.234Z,52304.84
2022-09-02T07:36:36.730Z,52257.59
2022-09-02T07:41:41.906Z,52282.25
2022-09-02T07:46:48.486Z,52284.31
2022-09-02T07:51:55.107Z,52306.91
2022-09-02T07:56:59.826Z,52393.16
2022-09-02T08:02:05.354Z,52366.47
2022-09-02T08:07:09.164Z,52442.47
2022-09-02T08:12:12.830Z,52469.16
2022-09-02T08:17:18.414Z,52502.03
2022-09-02T08:22:22.220Z,52541.06
2022-09-02T08:27:27.578Z,52559.53
2022-09-02T08:32:33.188Z,52557.50
2022-09-02T08:37:37.598Z,52573.91
2022-09-02T08:42:49.645Z,52541.06
2022-09-02T08:48:05.844Z,52528.72
2022-09-02T08:53:17.827Z,52485.59
2022-09-02T08:58:24.500Z,52508.19
2022-09-02T09:03:34.788Z,52506.13
2022-09-02T09:08:48.787Z,52510.25
2022-09-02T09:14:11.133Z,52477.38
2022-09-02T09:19:17.665Z,52477.38
2022-09-02T09:24:29.224Z,52514.34
2022-09-02T09:29:34.462Z,52489.69
2022-09-02T09:35:01.622Z,52483.53
2022-09-02T09:40:28.342Z,52450.69
2022-09-02T09:45:33.960Z,52473.28
2022-09-02T09:50:38.955Z,52471.22
2022-09-02T09:55:53.028Z,52463.00
2022-09-02T10:01:00.739Z,52479.44
2022-09-02T10:06:21.910Z,52438.34
2022-09-02T10:11:26.346Z,52524.63
2022-09-02T10:16:42.495Z,52467.09
2022-09-02T10:22:05.403Z,52471.22
2022-09-02T10:27:12.951Z,52467.09
2022-09-02T10:32:49.299Z,52504.09
2022-09-02T10:38:12.688Z,52495.88
2022-09-02T10:43:30.807Z,52471.22
2022-09-02T10:48:46.949Z,52516.41
2022-09-02T10:54:09.712Z,52512.28
2022-09-02T10:59:18.315Z,52520.50
2022-09-02T11:04:37.834Z,52539.00
2022-09-02T11:09:49.304Z,52573.91
2022-09-02T11:15:03.923Z,52565.69
2022-09-02T11:20:16.252Z,52545.16
2022-09-02T11:25:25.743Z,52571.88
2022-09-02T11:30:39.475Z,52590.34
2022-09-02T11:35:44.460Z,52588.28
2022-09-02T11:46:50.638Z,52621.16
2022-09-02T11:52:06.477Z,52635.53
2022-09-02T11:57:17.089Z,52635.53
2022-09-02T12:02:35.787Z,52645.81
2022-09-02T12:07:48.725Z,52651.97
2022-09-02T12:13:09.547Z,52664.31
2022-09-02T12:18:28.371Z,52641.72
2022-09-02T12:24:20.936Z,52625.28
2022-09-02T12:29:34.881Z,52656.09
2022-09-02T12:34:55.256Z,52672.50
2022-09-02T12:40:13.223Z,52627.31
2022-09-02T12:45:29.148Z,52658.13
2022-09-02T12:50:52.070Z,52662.25
2022-09-02T12:55:58.621Z,52686.91
2022-09-02T13:01:11.439Z,52709.50
2022-09-02T13:06:25.420Z,52666.34
2022-09-02T13:12:17.723Z,52658.13
2022-09-02T13:17:37.516Z,52635.53
2022-09-02T13:23:04.078Z,52649.91
2022-09-02T13:28:33.518Z,52621.16
2022-09-02T13:33:42.466Z,52602.69
2022-09-02T13:38:46.428Z,52598.56
2022-09-02T13:44:06.600Z,52602.69
2022-09-02T13:49:22.762Z,52594.47
2022-09-02T13:54:33.622Z,52619.09
2022-09-02T13:59:39.848Z,52594.47
2022-09-02T14:04:45.195Z,52623.22
2022-09-02T14:09:49.202Z,52610.91
2022-09-02T14:14:53.270Z,52610.91
2022-09-02T14:20:21.601Z,52633.50
2022-09-02T14:25:27.521Z,52619.09
2022-09-02T14:30:34.797Z,52617.06
2022-09-02T14:35:39.668Z,52610.91
2022-09-02T14:40:44.729Z,52641.72
2022-09-02T14:45:50.674Z,52658.13
2022-09-02T14:51:02.899Z,52643.75
2022-09-02T14:56:07.817Z,52643.75
2022-09-02T15:01:12.307Z,52647.88
2022-09-02T15:06:18.725Z,52596.50
2022-09-02T15:11:24.566Z,52639.66
2022-09-02T15:16:29.555Z,52660.19
2022-09-02T15:21:34.533Z,52617.06
2022-09-02T15:26:38.215Z,52594.47
2022-09-02T15:31:42.347Z,52615.00
2022-09-02T15:36:47.314Z,52610.91
2022-09-02T15:41:51.674Z,52641.72
2022-09-02T15:46:56.058Z,52621.16
2022-09-02T15:52:02.395Z,52635.53
2022-09-02T15:57:06.820Z,52635.53
2022-09-02T16:02:10.555Z,52621.16
2022-09-02T16:07:16.860Z,52602.69
2022-09-02T16:12:21.088Z,52590.34
2022-09-02T16:17:24.751Z,52617.06
2022-09-02T16:22:29.735Z,52625.28
2022-09-02T16:27:50.974Z,52569.81
2022-09-02T16:32:54.664Z,52590.34
2022-09-02T16:37:59.673Z,52586.25
2022-09-02T16:43:03.922Z,52590.34
2022-09-02T16:48:07.585Z,52612.94
2022-09-02T16:53:12.660Z,52612.94
2022-09-02T16:58:16.217Z,52586.25
2022-09-02T17:03:20.097Z,52621.16
2022-09-02T17:08:25.056Z,52598.56
2022-09-02T17:13:28.638Z,52606.78
2022-09-02T17:18:32.283Z,52573.91
2022-09-02T17:23:37.214Z,52584.19
2022-09-02T17:28:46.746Z,52594.47
2022-09-02T17:33:50.947Z,52573.91
2022-09-02T17:38:58.735Z,52569.81
2022-09-02T17:44:02.402Z,52582.13
2022-09-02T17:49:16.875Z,52543.09
2022-09-02T17:54:22.867Z,52539.00
2022-09-02T17:59:34.454Z,52565.69
2022-09-02T18:04:49.473Z,52561.59
2022-09-02T18:09:54.981Z,52541.06
2022-09-02T18:14:59.814Z,52557.50
2022-09-02T18:20:14.022Z,52536.94
2022-09-02T18:25:31.457Z,52508.19
2022-09-02T18:30:44.705Z,52526.69
2022-09-02T18:36:00.731Z,52504.09
2022-09-02T18:41:17.581Z,52528.72
2022-09-02T18:46:25.108Z,52532.84
2022-09-02T18:51:35.779Z,52516.41
2022-09-02T18:56:45.928Z,52541.06
2022-09-02T19:01:54.804Z,52510.25
2022-09-02T19:07:18.855Z,52493.81
2022-09-02T19:12:31.907Z,52528.72
2022-09-02T19:17:35.581Z,52512.28
2022-09-02T19:22:44.088Z,52526.69
2022-09-02T19:27:52.910Z,52514.34
2022-09-02T19:33:01.473Z,52516.41
2022-09-02T19:38:05.620Z,52506.13
2022-09-02T19:43:16.180Z,52485.59
2022-09-02T19:48:20.752Z,52475.31
2022-09-02T19:53:30.186Z,52491.75
2022-09-02T19:58:35.600Z,52487.66
2022-09-02T20:03:39.597Z,52485.59
2022-09-02T20:08:43.307Z,52473.28
2022-09-02T20:13:49.299Z,52475.31
2022-09-02T20:18:55.189Z,52516.41
2022-09-02T20:24:04.581Z,52491.75
2022-09-02T20:29:29.804Z,52481.50
2022-09-02T20:34:55.106Z,52454.78
2022-09-02T20:40:34.935Z,52483.53
2022-09-02T20:45:41.015Z,52475.31
2022-09-02T20:50:50.267Z,52473.28
2022-09-02T20:55:57.078Z,52487.66
2022-09-02T21:01:08.338Z,52481.50
2022-09-02T21:06:12.398Z,52479.44
2022-09-02T21:11:16.872Z,52471.22
2022-09-02T21:16:27.455Z,52473.28
2022-09-02T21:21:37.693Z,52471.22
2022-09-02T21:26:49.143Z,52477.38
2022-09-02T21:31:59.226Z,52471.22
2022-09-02T21:37:04.312Z,52483.53
2022-09-02T21:42:22.076Z,52469.16
2022-09-02T21:47:30.513Z,52423.97
2022-09-02T21:52:45.148Z,52485.59
2022-09-02T21:58:04.927Z,52477.38
2022-09-02T22:03:16.372Z,52483.53
2022-09-02T22:08:28.921Z,52460.94
2022-09-02T22:13:33.496Z,52469.16
2022-09-02T22:18:42.739Z,52438.34
2022-09-02T22:23:46.491Z,52489.69
2022-09-02T22:28:54.972Z,52438.34
2022-09-02T22:34:03.199Z,52444.50
2022-09-02T22:39:08.116Z,52430.13
2022-09-02T22:44:16.892Z,52469.16
2022-09-02T22:49:45.831Z,52446.56
2022-09-02T22:54:50.148Z,52411.66
2022-09-02T23:00:02.005Z,52434.25
2022-09-02T23:05:46.967Z,52436.28
2022-09-02T23:10:57.094Z,52434.25
2022-09-02T23:16:11.901Z,52430.13
2022-09-02T23:21:29.067Z,52446.56
2022-09-02T23:26:41.087Z,52397.28
2022-09-02T23:32:05.753Z,52415.75
2022-09-02T23:37:17.957Z,52421.91
2022-09-02T23:42:22.099Z,52421.91
2022-09-02T23:47:40.741Z,52428.09
2022-09-02T23:52:56.536Z,52426.03
2022-09-02T23:58:26.885Z,52401.38
